Time;durP1;ratioP1;P1;durP2;ratioP2;P2;SDS_P1;SDS_P2;PMS_P1;PMS_P2;Temp;Humidity;BMP_temperature;BMP_pressure;BME280_temperature;BME280_humidity;BME280_pressure;Samples;Min_cycle;Max_cycle;Signal;HPM_P1;HPM_P2
2023/07/08 00:01:12;;;;;;;13.73;7.70;;;21.10;61.50;;;;;;5096500;28;20796;-78
2023/07/08 00:03:40;;;;;;;12.80;6.93;;;21.10;61.60;;;;;;5103000;28;20464;-77
2023/07/08 00:06:14;;;;;;;12.97;7.60;;;21.00;61.60;;;;;;5101619;28;20449;-78
2023/07/08 00:08:43;;;;;;;14.30;7.87;;;21.00;61.70;;;;;;5095080;28;20495;-79
2023/07/08 00:11:12;;;;;;;12.30;7.23;;;21.00;61.80;;;;;;5098279;28;20480;-77
2023/07/08 00:13:40;;;;;;;14.80;6.83;;;21.00;61.80;;;;;;5098834;28;20468;-78
2023/07/08 00:16:11;;;;;;;17.80;7.30;;;20.90;61.90;;;;;;5101901;28;20505;-78
2023/07/08 00:18:40;;;;;;;13.63;7.30;;;20.90;62.10;;;;;;5097628;28;20944;-78
2023/07/08 00:21:13;;;;;;;10.87;6.70;;;20.80;62.10;;;;;;5098301;28;20448;-77
2023/07/08 00:23:44;;;;;;;12.83;7.23;;;20.80;62.10;;;;;;5099014;28;20469;-78
2023/07/08 00:26:17;;;;;;;13.63;7.40;;;20.80;62.20;;;;;;5099655;28;20476;-77
2023/07/08 00:28:45;;;;;;;13.93;7.80;;;20.70;62.30;;;;;;5099658;28;20467;-78
2023/07/08 00:31:14;;;;;;;13.40;8.00;;;20.70;62.30;;;;;;5101797;28;20525;-78
2023/07/08 00:33:42;;;;;;;12.87;8.07;;;20.60;62.30;;;;;;5103130;28;20457;-78
2023/07/08 00:36:13;;;;;;;15.93;8.83;;;20.60;62.40;;;;;;5101472;28;20539;-77
2023/07/08 00:38:44;;;;;;;11.57;7.50;;;20.60;62.40;;;;;;5101125;28;20516;-78
2023/07/08 00:41:16;;;;;;;12.37;7.00;;;20.60;62.50;;;;;;5095758;28;20487;-78
2023/07/08 00:43:48;;;;;;;11.90;6.87;;;20.50;62.50;;;;;;5102855;28;20543;-79
2023/07/08 00:46:34;;;;;;;11.03;6.73;;;20.50;62.60;;;;;;5116113;27;20548;-78
2023/07/08 00:49:15;;;;;;;15.60;7.30;;;20.50;62.70;;;;;;5101846;28;20456;-78
2023/07/08 00:51:43;;;;;;;11.00;7.03;;;20.50;62.70;;;;;;5094891;28;20479;-77
2023/07/08 00:54:13;;;;;;;10.67;6.60;;;20.50;62.70;;;;;;5101963;28;21013;-78
2023/07/08 00:56:46;;;;;;;14.73;8.00;;;20.50;62.80;;;;;;5097685;28;20468;-78
2023/07/08 00:59:20;;;;;;;10.90;6.70;;;20.40;62.90;;;;;;5098502;28;20467;-78
2023/07/08 01:01:49;;;;;;;10.70;6.67;;;20.40;63.00;;;;;;5096524;28;20476;-78
2023/07/08 01:04:21;;;;;;;12.63;6.13;;;20.40;63.00;;;;;;5099201;28;21104;-78
2023/07/08 01:06:57;;;;;;;11.20;6.90;;;20.40;63.10;;;;;;5096858;28;20846;-78
2023/07/08 01:09:30;;;;;;;14.03;7.70;;;20.40;63.20;;;;;;5100730;28;20463;-78
2023/07/08 01:12:03;;;;;;;12.23;7.50;;;20.30;63.30;;;;;;5101187;28;20468;-77
2023/07/08 01:14:33;;;;;;;11.70;7.40;;;20.20;63.30;;;;;;5099332;28;20570;-77
2023/07/08 01:17:01;;;;;;;12.53;6.90;;;20.20;63.50;;;;;;5100553;28;20448;-78
2023/07/08 01:19:33;;;;;;;11.67;7.63;;;20.10;63.60;;;;;;5101095;28;20978;-78
2023/07/08 01:22:03;;;;;;;11.83;7.03;;;20.10;63.60;;;;;;5098640;28;20866;-78
2023/07/08 01:24:34;;;;;;;10.20;6.47;;;20.10;63.60;;;;;;5098957;28;20488;-77
2023/07/08 01:27:05;;;;;;;10.50;6.67;;;20.10;63.70;;;;;;5099339;28;21011;-77
2023/07/08 01:29:33;;;;;;;11.07;7.30;;;20.10;63.70;;;;;;5097389;28;20462;-78
2023/07/08 01:32:02;;;;;;;12.70;8.00;;;20.10;63.70;;;;;;5097664;28;20481;-77
2023/07/08 01:34:31;;;;;;;10.73;7.10;;;20.00;63.70;;;;;;5097065;28;20878;-78
2023/07/08 01:37:04;;;;;;;10.90;6.87;;;20.00;63.70;;;;;;5106610;28;20460;-78
2023/07/08 01:39:33;;;;;;;15.33;7.63;;;19.90;63.80;;;;;;5103252;28;21239;-78
2023/07/08 01:42:02;;;;;;;11.40;6.50;;;19.90;63.80;;;;;;5103213;28;20795;-78
2023/07/08 01:44:32;;;;;;;13.03;7.07;;;19.80;63.90;;;;;;5098331;28;20456;-77
2023/07/08 01:47:04;;;;;;;10.77;6.70;;;19.90;64.00;;;;;;5102297;28;20499;-77
2023/07/08 01:49:34;;;;;;;11.80;7.40;;;19.90;64.10;;;;;;5104387;28;20488;-78
2023/07/08 01:52:04;;;;;;;12.60;7.33;;;19.90;64.10;;;;;;5104446;28;20472;-78
2023/07/08 01:54:32;;;;;;;12.10;7.30;;;19.90;64.20;;;;;;5102665;28;20465;-78
2023/07/08 01:57:02;;;;;;;11.77;6.40;;;19.90;64.20;;;;;;5103890;28;20534;-77
2023/07/08 01:59:30;;;;;;;12.03;7.20;;;19.80;64.10;;;;;;5106346;28;20512;-76
2023/07/08 02:01:58;;;;;;;10.90;6.27;;;19.80;64.20;;;;;;5103470;28;20524;-78
2023/07/08 02:04:30;;;;;;;12.87;6.93;;;19.80;64.20;;;;;;5102542;28;20451;-77
2023/07/08 02:07:00;;;;;;;11.30;6.70;;;19.70;64.30;;;;;;5099849;28;20538;-77
2023/07/08 02:09:30;;;;;;;12.00;6.60;;;19.70;64.30;;;;;;5106791;28;20460;-77
2023/07/08 02:12:04;;;;;;;11.50;7.40;;;19.70;64.40;;;;;;5098188;28;20574;-78
2023/07/08 02:14:32;;;;;;;12.07;7.00;;;19.70;64.40;;;;;;5101060;28;20451;-78
2023/07/08 02:17:00;;;;;;;13.37;7.60;;;19.70;64.50;;;;;;5102305;28;20467;-77
2023/07/08 02:19:28;;;;;;;10.73;6.63;;;19.70;64.50;;;;;;5103607;28;20466;-78
2023/07/08 02:21:56;;;;;;;12.80;6.83;;;19.60;64.50;;;;;;5096733;28;20436;-78
2023/07/08 02:24:24;;;;;;;11.47;7.10;;;19.60;64.60;;;;;;5099507;28;20466;-77
2023/07/08 02:26:54;;;;;;;13.93;7.47;;;19.60;64.70;;;;;;5103349;28;20459;-77
2023/07/08 02:29:22;;;;;;;14.10;7.07;;;19.50;64.60;;;;;;5104684;28;20470;-77
2023/07/08 02:31:50;;;;;;;14.33;6.70;;;19.40;64.70;;;;;;5104315;28;20480;-78
2023/07/08 02:34:18;;;;;;;14.23;7.50;;;19.40;64.80;;;;;;5105699;28;20497;-77
2023/07/08 02:36:47;;;;;;;11.20;6.87;;;19.40;64.90;;;;;;5098695;28;20463;-77
2023/07/08 02:39:14;;;;;;;14.67;7.13;;;19.30;64.90;;;;;;5098925;28;20477;-78
2023/07/08 02:41:42;;;;;;;11.77;6.80;;;19.30;64.90;;;;;;5101238;28;20795;-78
2023/07/08 02:44:11;;;;;;;11.10;7.23;;;19.20;64.90;;;;;;5103612;28;20476;-77
2023/07/08 02:46:40;;;;;;;11.53;7.20;;;19.10;65.00;;;;;;5100256;28;20463;-78
2023/07/08 02:49:08;;;;;;;10.80;6.87;;;19.10;65.00;;;;;;5102601;28;20460;-78
2023/07/08 02:51:36;;;;;;;10.90;7.00;;;19.00;65.10;;;;;;5092270;28;20483;-77
2023/07/08 02:54:04;;;;;;;10.47;6.13;;;19.00;65.20;;;;;;5101763;28;21113;-78
2023/07/08 02:56:32;;;;;;;12.07;7.20;;;19.00;65.30;;;;;;5097863;28;20482;-77
2023/07/08 02:59:00;;;;;;;10.27;6.40;;;19.00;65.30;;;;;;5099334;28;20480;-78
2023/07/08 03:01:30;;;;;;;12.30;6.93;;;19.00;65.30;;;;;;5102226;28;20483;-77
2023/07/08 03:04:00;;;;;;;11.93;7.00;;;19.00;65.40;;;;;;5105737;28;20460;-78
2023/07/08 03:06:28;;;;;;;13.10;6.80;;;19.00;65.40;;;;;;5102981;28;20463;-77
2023/07/08 03:08:56;;;;;;;13.53;7.23;;;18.90;65.40;;;;;;5114569;27;20464;-77
2023/07/08 03:11:24;;;;;;;12.70;6.80;;;18.90;65.50;;;;;;5097249;28;20484;-78
2023/07/08 03:13:52;;;;;;;12.43;7.43;;;18.90;65.50;;;;;;5114464;27;20466;-77
2023/07/08 03:16:20;;;;;;;12.80;7.63;;;18.90;65.60;;;;;;5098337;28;20464;-77
2023/07/08 03:18:49;;;;;;;10.80;6.23;;;18.90;65.60;;;;;;5103096;28;20547;-78
2023/07/08 03:21:19;;;;;;;11.67;6.80;;;18.90;65.60;;;;;;5104039;28;20934;-78
2023/07/08 03:23:57;;;;;;;10.93;6.77;;;18.90;65.60;;;;;;5104091;28;20516;-78
2023/07/08 03:26:27;;;;;;;11.20;6.37;;;18.90;65.60;;;;;;5104792;28;20470;-78
2023/07/08 03:28:59;;;;;;;17.07;7.43;;;18.90;65.60;;;;;;5102409;28;20504;-78
2023/07/08 03:31:28;;;;;;;16.80;7.80;;;18.90;65.60;;;;;;5102825;28;20479;-77
2023/07/08 03:33:58;;;;;;;11.90;6.50;;;18.80;65.70;;;;;;5099929;28;21131;-78
2023/07/08 03:36:29;;;;;;;12.10;7.07;;;18.80;65.80;;;;;;5097265;28;20463;-78
2023/07/08 03:38:58;;;;;;;11.60;6.73;;;18.80;65.90;;;;;;5092959;28;20558;-77
2023/07/08 03:41:26;;;;;;;14.20;6.50;;;18.70;66.00;;;;;;5101424;28;20459;-77
2023/07/08 03:43:55;;;;;;;12.17;7.17;;;18.70;66.00;;;;;;5097282;28;20546;-77
2023/07/08 03:46:23;;;;;;;11.07;6.07;;;18.70;66.00;;;;;;5103045;28;20555;-77
2023/07/08 03:48:53;;;;;;;10.60;5.93;;;18.70;66.00;;;;;;5105596;27;20467;-78
2023/07/08 03:51:26;;;;;;;10.53;6.63;;;18.60;66.10;;;;;;5099028;28;20718;-77
2023/07/08 03:53:56;;;;;;;13.50;7.00;;;18.60;66.10;;;;;;5094669;28;20557;-77
2023/07/08 03:56:25;;;;;;;11.63;6.93;;;18.60;66.20;;;;;;5093650;27;20464;-77
2023/07/08 03:58:53;;;;;;;10.90;6.97;;;18.60;66.20;;;;;;5103053;28;20447;-77
2023/07/08 04:01:24;;;;;;;11.70;6.80;;;18.60;66.30;;;;;;5104620;28;20560;-78
2023/07/08 04:03:56;;;;;;;13.10;7.20;;;18.60;66.30;;;;;;5099187;28;20463;-78
2023/07/08 04:06:28;;;;;;;12.27;6.37;;;18.60;66.30;;;;;;5102046;28;20464;-77
2023/07/08 04:08:57;;;;;;;12.63;7.83;;;18.60;66.30;;;;;;5102157;28;20477;-77
2023/07/08 04:11:25;;;;;;;13.00;7.33;;;18.60;66.40;;;;;;5097540;28;20481;-77
2023/07/08 04:13:53;;;;;;;12.70;7.00;;;18.60;66.40;;;;;;5099245;28;20471;-80
2023/07/08 04:16:24;;;;;;;13.73;7.17;;;18.70;66.40;;;;;;5100949;28;20459;-77
2023/07/08 04:18:53;;;;;;;11.07;7.13;;;18.70;66.50;;;;;;5102003;28;20824;-79
2023/07/08 04:21:22;;;;;;;11.63;7.10;;;18.80;66.40;;;;;;5097943;28;20467;-79
2023/07/08 04:23:52;;;;;;;11.93;7.60;;;18.90;66.40;;;;;;5097610;28;20452;-79
2023/07/08 04:26:20;;;;;;;13.23;7.30;;;19.00;66.50;;;;;;5099757;28;21492;-79
2023/07/08 04:28:48;;;;;;;10.60;6.57;;;19.10;66.50;;;;;;5097963;28;20520;-79
2023/07/08 04:31:17;;;;;;;11.73;6.70;;;19.20;66.50;;;;;;5100552;28;20470;-79
2023/07/08 04:33:45;;;;;;;12.50;7.67;;;19.40;66.50;;;;;;5097205;28;20483;-78
2023/07/08 04:36:15;;;;;;;12.87;7.10;;;19.50;66.30;;;;;;5102621;28;20829;-78
2023/07/08 04:38:46;;;;;;;14.00;6.73;;;19.70;66.30;;;;;;5099411;28;20956;-79
2023/07/08 04:41:16;;;;;;;10.17;6.87;;;19.80;66.20;;;;;;5097085;28;20494;-77
2023/07/08 04:43:44;;;;;;;10.83;6.60;;;20.00;66.20;;;;;;5099293;28;20460;-79
2023/07/08 04:46:20;;;;;;;13.97;7.30;;;20.10;66.30;;;;;;5099249;28;20534;-79
2023/07/08 04:48:48;;;;;;;14.47;7.57;;;20.30;66.10;;;;;;5102964;28;20870;-79
2023/07/08 04:51:19;;;;;;;14.27;7.00;;;20.40;66.10;;;;;;5108983;28;20528;-79
2023/07/08 04:53:46;;;;;;;11.83;6.00;;;20.60;66.00;;;;;;5106337;28;20543;-80
2023/07/08 04:56:16;;;;;;;10.37;6.03;;;20.80;66.10;;;;;;5102125;28;20456;-79
2023/07/08 04:58:44;;;;;;;16.30;6.97;;;21.00;65.90;;;;;;5102734;28;20456;-77
2023/07/08 05:01:12;;;;;;;12.60;6.60;;;21.20;65.80;;;;;;5105910;28;20473;-79
2023/07/08 05:03:40;;;;;;;11.50;6.70;;;21.30;65.60;;;;;;5094223;28;20534;-80
2023/07/08 05:06:08;;;;;;;15.37;7.03;;;21.50;65.40;;;;;;5099506;28;21127;-79
2023/07/08 05:08:36;;;;;;;12.10;7.07;;;21.60;65.10;;;;;;5104113;28;21025;-80
2023/07/08 05:11:04;;;;;;;12.23;6.80;;;21.70;64.90;;;;;;5102448;28;20457;-79
2023/07/08 05:13:35;;;;;;;11.00;6.20;;;21.80;64.70;;;;;;5101743;28;21124;-78
2023/07/08 05:16:03;;;;;;;10.33;5.93;;;22.00;64.60;;;;;;5103850;28;20865;-78
2023/07/08 05:18:31;;;;;;;12.03;6.27;;;22.20;64.40;;;;;;5107282;28;20444;-78
2023/07/08 05:20:59;;;;;;;10.97;6.77;;;22.40;64.20;;;;;;5109473;28;20489;-79
2023/07/08 05:23:27;;;;;;;10.97;6.50;;;22.60;63.90;;;;;;5107420;28;20444;-80
2023/07/08 05:25:55;;;;;;;10.57;6.67;;;22.80;63.70;;;;;;5108378;28;20459;-78
2023/07/08 05:28:24;;;;;;;11.70;6.10;;;22.90;63.20;;;;;;5107882;28;20461;-77
2023/07/08 05:30:55;;;;;;;10.30;6.00;;;23.00;63.00;;;;;;5111186;27;21039;-78
2023/07/08 05:33:24;;;;;;;9.87;6.00;;;23.10;62.90;;;;;;5106531;28;20487;-78
2023/07/08 05:35:52;;;;;;;12.10;6.90;;;23.20;62.90;;;;;;5102273;28;20740;-78
2023/07/08 05:38:21;;;;;;;12.63;6.33;;;23.30;62.40;;;;;;5109103;28;20466;-79
2023/07/08 05:40:50;;;;;;;12.83;6.73;;;23.40;62.30;;;;;;5105217;28;21304;-79
2023/07/08 05:43:19;;;;;;;13.30;7.30;;;23.40;62.50;;;;;;5099978;28;20535;-78
2023/07/08 05:45:47;;;;;;;9.00;5.97;;;23.90;62.90;;;;;;5106849;28;20454;-80
2023/07/08 05:48:37;;;;;;;12.77;6.67;;;24.80;61.80;;;;;;5103398;28;20518;-78
2023/07/08 05:51:05;;;;;;;11.70;6.50;;;26.00;59.80;;;;;;5107217;28;20829;-78
2023/07/08 05:53:33;;;;;;;9.97;5.50;;;27.00;58.20;;;;;;5100968;28;20476;-79
2023/07/08 05:56:02;;;;;;;9.40;6.27;;;27.70;56.90;;;;;;5105842;28;20451;-79
2023/07/08 05:58:30;;;;;;;11.20;6.30;;;28.50;56.00;;;;;;5102875;28;20856;-79
2023/07/08 06:00:58;;;;;;;10.40;6.40;;;29.20;54.90;;;;;;5101798;28;20503;-78
2023/07/08 06:03:27;;;;;;;12.87;7.27;;;;;;;;;;5105745;27;20510;-79
2023/07/08 06:05:57;;;;;;;12.90;6.00;;;30.10;53.40;;;;;;5097938;28;20986;-78
2023/07/08 06:08:25;;;;;;;9.90;6.40;;;30.60;52.60;;;;;;5099906;28;20460;-79
2023/07/08 06:10:53;;;;;;;10.93;6.20;;;31.00;51.80;;;;;;5101914;28;20451;-79
2023/07/08 06:13:21;;;;;;;10.97;5.80;;;31.60;50.90;;;;;;5101570;28;20451;-81
2023/07/08 06:15:49;;;;;;;13.93;6.10;;;32.10;49.90;;;;;;5104351;28;20547;-79
2023/07/08 06:18:17;;;;;;;8.77;6.00;;;32.50;48.90;;;;;;5103774;28;20502;-80
2023/07/08 06:20:52;;;;;;;14.17;6.77;;;32.30;48.60;;;;;;5105954;28;20452;-78
2023/07/08 06:23:22;;;;;;;10.47;6.27;;;31.90;48.40;;;;;;5101964;28;20455;-79
2023/07/08 06:25:50;;;;;;;9.70;6.17;;;31.40;48.40;;;;;;5101078;28;20519;-79
2023/07/08 06:28:18;;;;;;;9.17;5.47;;;30.90;48.20;;;;;;5106385;28;20500;-80
2023/07/08 06:30:46;;;;;;;10.97;6.40;;;30.30;48.20;;;;;;5103954;28;20479;-81
2023/07/08 06:33:15;;;;;;;8.60;5.47;;;29.60;48.40;;;;;;5102159;28;20487;-80
2023/07/08 06:35:44;;;;;;;9.57;5.33;;;28.80;48.60;;;;;;5109995;28;20440;-80
2023/07/08 06:38:12;;;;;;;12.00;6.00;;;28.20;49.10;;;;;;5105091;28;20448;-79
2023/07/08 06:40:41;;;;;;;9.80;5.53;;;27.60;49.50;;;;;;5101732;28;20459;-81
2023/07/08 06:43:09;;;;;;;11.40;5.50;;;27.10;49.90;;;;;;5101065;28;21191;-79
2023/07/08 06:45:44;;;;;;;13.17;6.33;;;26.60;50.30;;;;;;5100521;28;20449;-79
2023/07/08 06:48:12;;;;;;;15.10;6.93;;;26.30;50.80;;;;;;5099913;28;21365;-81
2023/07/08 06:50:43;;;;;;;11.90;6.57;;;26.10;51.10;;;;;;5099339;27;20463;-80
2023/07/08 06:53:10;;;;;;;8.90;5.60;;;25.90;51.40;;;;;;5102881;28;20469;-80
2023/07/08 06:55:39;;;;;;;11.83;6.17;;;25.70;51.60;;;;;;5100527;27;20484;-79
2023/07/08 06:58:08;;;;;;;10.67;5.73;;;25.60;51.80;;;;;;5100330;28;20447;-79
2023/07/08 07:00:36;;;;;;;11.90;5.37;;;25.50;52.10;;;;;;5093844;28;20475;-81
2023/07/08 07:03:04;;;;;;;11.57;6.50;;;25.30;52.40;;;;;;5101616;28;20467;-79
2023/07/08 07:05:32;;;;;;;17.60;5.57;;;25.30;52.60;;;;;;5102830;28;20578;-81
2023/07/08 07:08:00;;;;;;;8.67;5.10;;;25.20;52.70;;;;;;5102582;28;20448;-80
2023/07/08 07:10:28;;;;;;;10.70;5.90;;;25.20;52.80;;;;;;5103413;27;20460;-79
2023/07/08 07:12:57;;;;;;;9.53;6.20;;;25.20;53.10;;;;;;5100732;28;20487;-79
2023/07/08 07:15:26;;;;;;;10.70;5.23;;;25.30;53.10;;;;;;5101628;28;20476;-79
2023/07/08 07:17:54;;;;;;;8.30;5.17;;;25.20;53.00;;;;;;5101000;28;20479;-80
2023/07/08 07:20:22;;;;;;;14.57;6.53;;;25.20;53.10;;;;;;5107279;28;20464;-80
2023/07/08 07:22:51;;;;;;;12.73;6.30;;;25.30;53.30;;;;;;5104029;28;20452;-78
2023/07/08 07:25:19;;;;;;;13.23;5.53;;;25.30;53.30;;;;;;5100817;28;20464;-81
2023/07/08 07:27:47;;;;;;;14.77;6.70;;;25.40;53.20;;;;;;5099822;28;20464;-80
2023/07/08 07:30:15;;;;;;;11.00;6.20;;;25.50;53.30;;;;;;5099489;28;20468;-78
2023/07/08 07:32:45;;;;;;;10.80;5.47;;;25.50;53.30;;;;;;5100815;28;20456;-79
2023/07/08 07:35:14;;;;;;;327.47;39.20;;;25.60;53.30;;;;;;5101838;28;20922;-79
2023/07/08 07:37:44;;;;;;;14.37;6.80;;;25.60;53.40;;;;;;5107345;28;20472;-80
2023/07/08 07:40:15;;;;;;;13.80;6.07;;;25.70;53.40;;;;;;5102350;28;20476;-80
2023/07/08 07:42:46;;;;;;;15.97;6.20;;;25.70;53.40;;;;;;5111284;27;20444;-80
2023/07/08 07:45:15;;;;;;;13.87;7.13;;;25.80;53.40;;;;;;5100523;27;20472;-80
2023/07/08 07:47:43;;;;;;;11.00;5.43;;;25.90;53.30;;;;;;5102166;28;20471;-78
2023/07/08 07:50:12;;;;;;;9.67;5.80;;;25.90;53.30;;;;;;5100013;28;20901;-80
2023/07/08 07:52:41;;;;;;;9.13;5.63;;;26.00;53.30;;;;;;5100047;28;20456;-79
2023/07/08 07:55:09;;;;;;;12.43;6.73;;;26.00;53.30;;;;;;5096661;28;21290;-81
2023/07/08 07:57:37;;;;;;;10.50;6.17;;;26.10;53.20;;;;;;5101082;28;20466;-80
2023/07/08 08:00:06;;;;;;;11.83;6.00;;;26.10;53.30;;;;;;5103018;28;20460;-79
2023/07/08 08:02:40;;;;;;;12.00;6.03;;;26.10;53.30;;;;;;5099858;28;20525;-78
2023/07/08 08:05:09;;;;;;;11.60;6.40;;;26.10;53.30;;;;;;5101136;28;21151;-80
2023/07/08 08:07:38;;;;;;;13.60;6.80;;;26.10;54.10;;;;;;5102886;28;20483;-80
2023/07/08 08:10:07;;;;;;;17.33;7.20;;;26.00;54.40;;;;;;5103592;28;20465;-78
2023/07/08 08:12:35;;;;;;;11.60;6.47;;;25.90;54.60;;;;;;5101698;28;20451;-79
2023/07/08 08:15:18;;;;;;;11.70;7.23;;;25.80;54.80;;;;;;5105396;28;20460;-79
2023/07/08 08:17:48;;;;;;;15.50;6.93;;;25.70;55.00;;;;;;5116457;27;20951;-80
2023/07/08 08:20:17;;;;;;;15.47;6.63;;;25.60;55.30;;;;;;5104063;28;20444;-79
2023/07/08 08:22:47;;;;;;;12.60;6.80;;;25.60;55.50;;;;;;5099031;28;20452;-79
2023/07/08 08:25:15;;;;;;;9.70;6.40;;;25.70;55.70;;;;;;5099787;28;20466;-78
2023/07/08 08:27:43;;;;;;;9.77;5.83;;;25.70;55.80;;;;;;5108021;28;20447;-80
2023/07/08 08:30:13;;;;;;;10.60;6.60;;;25.60;55.90;;;;;;5094669;28;20468;-80
2023/07/08 08:32:40;;;;;;;13.90;6.33;;;25.60;56.00;;;;;;5107046;27;20905;-80
2023/07/08 08:35:09;;;;;;;11.57;6.70;;;25.60;56.00;;;;;;5095462;28;20555;-80
2023/07/08 08:37:37;;;;;;;11.67;6.90;;;25.60;56.10;;;;;;5101341;28;20460;-79
2023/07/08 08:40:12;;;;;;;11.37;6.50;;;25.60;56.20;;;;;;5100689;28;20461;-80
2023/07/08 08:42:43;;;;;;;13.50;7.00;;;25.60;56.30;;;;;;5097218;28;20494;-79
2023/07/08 08:45:17;;;;;;;9.77;6.00;;;25.60;56.30;;;;;;5116103;27;20829;-79
2023/07/08 08:47:47;;;;;;;11.63;6.00;;;25.70;56.50;;;;;;5098581;28;20474;-81
2023/07/08 08:50:29;;;;;;;12.40;6.70;;;25.80;56.50;;;;;;5097165;28;20833;-79
2023/07/08 08:52:59;;;;;;;11.10;6.87;;;25.80;56.50;;;;;;5100874;28;20464;-80
2023/07/08 08:55:29;;;;;;;10.10;5.80;;;25.90;56.20;;;;;;5097938;28;20472;-80
2023/07/08 08:58:06;;;;;;;11.17;6.57;;;26.00;56.10;;;;;;5099783;28;20486;-80
2023/07/08 09:00:48;;;;;;;12.30;6.27;;;26.10;56.10;;;;;;5098321;28;20883;-80
2023/07/08 09:03:19;;;;;;;14.13;7.07;;;26.10;56.10;;;;;;5098787;28;20957;-79
2023/07/08 09:05:48;;;;;;;11.60;6.97;;;26.20;55.90;;;;;;5101395;28;20483;-80
2023/07/08 09:08:21;;;;;;;9.60;6.40;;;26.30;55.70;;;;;;5097154;28;20460;-79
2023/07/08 09:10:56;;;;;;;10.20;6.90;;;26.40;55.30;;;;;;5113868;28;20842;-79
2023/07/08 09:13:28;;;;;;;11.50;6.20;;;26.40;55.20;;;;;;5098696;28;20478;-79
2023/07/08 09:16:02;;;;;;;11.10;6.70;;;26.50;55.20;;;;;;5099760;28;20476;-80
2023/07/08 09:18:39;;;;;;;10.20;5.80;;;26.50;55.00;;;;;;5105086;28;20463;-80
2023/07/08 09:21:19;;;;;;;11.00;6.17;;;26.60;54.60;;;;;;5101612;28;20925;-79
2023/07/08 09:23:51;;;;;;;14.10;6.90;;;26.70;54.10;;;;;;5099123;28;20538;-79
2023/07/08 09:26:25;;;;;;;13.63;6.43;;;26.80;54.00;;;;;;5100026;28;20462;-77
2023/07/08 09:28:53;;;;;;;10.77;5.70;;;26.90;53.70;;;;;;5095994;28;20464;-80
2023/07/08 09:31:24;;;;;;;14.00;6.00;;;27.00;53.50;;;;;;5096986;28;20460;-79
2023/07/08 09:33:53;;;;;;;13.30;6.97;;;27.10;53.50;;;;;;5107551;28;20451;-79
2023/07/08 09:36:25;;;;;;;11.60;6.30;;;27.20;53.10;;;;;;5102890;28;20538;-79
2023/07/08 09:38:53;;;;;;;11.57;5.90;;;27.20;52.70;;;;;;5100882;28;20460;-79
2023/07/08 09:41:34;;;;;;;13.90;6.70;;;27.30;52.70;;;;;;5100577;28;20458;-79
2023/07/08 09:44:05;;;;;;;12.30;6.87;;;27.40;52.10;;;;;;5098848;28;20543;-79
2023/07/08 09:46:37;;;;;;;13.37;6.30;;;27.40;51.70;;;;;;5095734;28;20464;-77
2023/07/08 09:49:22;;;;;;;10.80;6.80;;;27.60;51.60;;;;;;5098117;28;20535;-78
2023/07/08 09:51:51;;;;;;;13.17;7.10;;;27.70;51.50;;;;;;5093579;28;20464;-79
2023/07/08 09:54:20;;;;;;;11.73;6.67;;;27.80;51.30;;;;;;5104403;28;20464;-79
2023/07/08 09:57:04;;;;;;;10.70;6.50;;;27.80;50.90;;;;;;5115296;27;20480;-79
2023/07/08 09:59:35;;;;;;;13.07;6.60;;;27.90;50.50;;;;;;5104413;28;20942;-80
2023/07/08 10:02:21;;;;;;;9.27;5.90;;;28.00;50.50;;;;;;5102688;28;20558;-79
2023/07/08 10:04:54;;;;;;;11.37;7.20;;;28.00;50.50;;;;;;5100080;28;20550;-78
2023/07/08 10:07:22;;;;;;;10.20;6.20;;;28.10;50.30;;;;;;5098841;28;20946;-79
2023/07/08 10:09:55;;;;;;;12.13;7.00;;;28.20;50.30;;;;;;5100911;28;20455;-79
2023/07/08 10:12:28;;;;;;;10.53;6.57;;;28.30;50.10;;;;;;5097831;28;20498;-79
2023/07/08 10:15:02;;;;;;;10.60;6.70;;;28.40;49.90;;;;;;5103152;28;20463;-79
2023/07/08 10:17:30;;;;;;;9.77;6.50;;;28.40;49.50;;;;;;5101668;28;20487;-79
2023/07/08 10:19:59;;;;;;;10.17;6.10;;;28.50;49.20;;;;;;5108351;28;20513;-79
2023/07/08 10:22:37;;;;;;;10.77;6.33;;;28.60;48.70;;;;;;5105219;28;20463;-80
2023/07/08 10:25:15;;;;;;;11.30;6.87;;;28.60;48.40;;;;;;5105349;28;20466;-78
2023/07/08 10:27:50;;;;;;;12.30;6.03;;;28.70;48.30;;;;;;5098442;28;20483;-78
2023/07/08 10:30:23;;;;;;;13.50;6.63;;;28.80;48.10;;;;;;5106512;27;20539;-77
2023/07/08 10:33:08;;;;;;;11.63;5.80;;;28.80;47.90;;;;;;5098583;27;20448;-78
2023/07/08 10:35:41;;;;;;;12.60;6.33;;;28.90;47.30;;;;;;5108519;27;20455;-77
2023/07/08 10:38:25;;;;;;;13.27;6.40;;;29.00;47.00;;;;;;5099588;28;20818;-78
2023/07/08 10:40:58;;;;;;;10.17;5.90;;;29.00;46.60;;;;;;5101334;27;20531;-78
2023/07/08 10:43:48;;;;;;;10.83;6.40;;;29.00;46.40;;;;;;5117423;27;20460;-78
2023/07/08 10:46:25;;;;;;;10.27;5.87;;;29.10;46.50;;;;;;5103885;28;20490;-78
2023/07/08 10:49:21;;;;;;;9.97;5.40;;;29.20;46.70;;;;;;5098465;28;20463;-78
2023/07/08 10:52:01;;;;;;;11.87;6.67;;;29.20;46.60;;;;;;5103334;28;20464;-78
2023/07/08 10:54:43;;;;;;;11.67;6.47;;;29.30;46.70;;;;;;5109770;27;20472;-78
2023/07/08 10:57:34;;;;;;;9.33;5.47;;;29.40;46.50;;;;;;5104482;28;20493;-77
2023/07/08 11:00:22;;;;;;;10.40;5.77;;;29.50;46.30;;;;;;5103455;28;20820;-79
2023/07/08 11:03:29;;;;;;;10.10;6.17;;;29.50;46.20;;;;;;5099062;28;20476;-78
2023/07/08 11:06:02;;;;;;;10.67;5.70;;;29.60;46.10;;;;;;5096404;28;20970;-77
2023/07/08 11:08:36;;;;;;;10.07;6.13;;;29.60;46.00;;;;;;5097771;28;20477;-78
2023/07/08 11:11:10;;;;;;;9.27;5.73;;;29.60;45.90;;;;;;5106569;28;20548;-77
2023/07/08 11:13:50;;;;;;;10.77;5.83;;;29.60;45.80;;;;;;5103169;28;20467;-77
2023/07/08 11:16:25;;;;;;;12.80;5.83;;;29.60;45.70;;;;;;5100833;28;20479;-78
2023/07/08 11:19:02;;;;;;;11.20;5.60;;;29.60;45.70;;;;;;5103131;28;20487;-77
2023/07/08 11:21:36;;;;;;;12.07;6.30;;;29.60;45.60;;;;;;5104823;27;20465;-77
2023/07/08 11:24:13;;;;;;;10.77;6.40;;;29.60;45.60;;;;;;5107362;27;20808;-78
2023/07/08 11:26:46;;;;;;;13.77;6.90;;;29.60;45.60;;;;;;5100122;27;20467;-77
2023/07/08 11:29:19;;;;;;;11.63;6.47;;;29.60;45.60;;;;;;5107959;27;20452;-78
2023/07/08 11:31:50;;;;;;;11.40;6.80;;;29.70;45.60;;;;;;5100514;28;20970;-77
2023/07/08 11:34:20;;;;;;;11.70;6.87;;;29.70;45.40;;;;;;5100688;28;20548;-77
2023/07/08 11:36:49;;;;;;;17.67;6.13;;;29.70;45.40;;;;;;5099800;28;20479;-77
2023/07/08 11:39:34;;;;;;;13.53;6.60;;;29.80;45.30;;;;;;5097761;28;20475;-77
2023/07/08 11:42:18;;;;;;;12.00;6.90;;;29.80;45.70;;;;;;5101820;28;20959;-77
2023/07/08 11:52:03;;;;;;;10.23;6.70;;;29.80;45.70;;;;;;5093486;28;20465;-77
2023/07/08 12:02:49;;;;;;;11.57;6.77;;;30.00;45.70;;;;;;5095842;28;20460;-76
2023/07/08 12:05:30;;;;;;;11.10;6.53;;;30.00;45.60;;;;;;5107048;28;20456;-76
2023/07/08 12:08:02;;;;;;;10.57;6.40;;;30.00;45.60;;;;;;5101082;28;20452;-77
2023/07/08 12:10:35;;;;;;;9.50;6.03;;;30.00;45.60;;;;;;5104650;28;20452;-77
2023/07/08 12:13:04;;;;;;;10.93;6.50;;;30.10;45.60;;;;;;5100360;28;20978;-76
2023/07/08 12:15:34;;;;;;;11.70;6.60;;;30.10;45.50;;;;;;5099465;28;20471;-78
2023/07/08 12:18:10;;;;;;;16.13;6.97;;;30.10;45.60;;;;;;5102233;28;20511;-77
2023/07/08 12:20:40;;;;;;;11.80;7.10;;;30.20;45.60;;;;;;5101610;28;20452;-77
2023/07/08 12:23:12;;;;;;;11.80;6.77;;;30.20;45.70;;;;;;5098069;28;21015;-77
2023/07/08 12:26:31;;;;;;;13.63;6.43;;;30.20;45.60;;;;;;5101786;27;20505;-78
2023/07/08 12:29:34;;;;;;;10.03;6.30;;;30.20;45.50;;;;;;5102134;28;20456;-77
2023/07/08 12:32:03;;;;;;;11.90;6.20;;;30.30;45.40;;;;;;5102010;27;20519;-76
2023/07/08 12:34:33;;;;;;;11.33;7.00;;;30.30;45.40;;;;;;5098747;28;20965;-77
2023/07/08 12:37:01;;;;;;;11.50;5.90;;;30.40;45.30;;;;;;5097481;28;20477;-77
2023/07/08 12:39:35;;;;;;;15.20;6.30;;;30.40;45.20;;;;;;5102706;28;20460;-77
2023/07/08 12:42:09;;;;;;;12.47;6.40;;;30.50;45.20;;;;;;5099374;28;21122;-77
2023/07/08 12:44:42;;;;;;;11.83;6.13;;;30.50;45.20;;;;;;5100748;28;20467;-77
2023/07/08 12:47:10;;;;;;;11.53;6.63;;;30.50;45.10;;;;;;5103316;28;20448;-77
2023/07/08 12:49:38;;;;;;;9.63;5.83;;;30.50;45.50;;;;;;5101108;28;20463;-77
2023/07/08 12:52:06;;;;;;;12.33;6.83;;;30.50;46.00;;;;;;5098418;28;20457;-77
2023/07/08 12:54:36;;;;;;;12.07;6.00;;;30.50;46.20;;;;;;5096046;28;20518;-78
2023/07/08 12:57:19;;;;;;;11.47;7.30;;;30.50;46.10;;;;;;5102581;28;20478;-77
2023/07/08 12:59:47;;;;;;;10.70;6.43;;;30.50;46.00;;;;;;5098423;28;20877;-77
2023/07/08 13:02:19;;;;;;;12.10;6.03;;;30.50;45.90;;;;;;5097350;28;20811;-77
2023/07/08 13:04:50;;;;;;;15.90;6.73;;;30.50;45.80;;;;;;5103501;28;20472;-77
2023/07/08 13:07:27;;;;;;;10.90;6.30;;;30.50;45.80;;;;;;5097886;28;20544;-77
2023/07/08 13:09:57;;;;;;;10.67;6.47;;;30.50;45.70;;;;;;5101462;28;20448;-77
2023/07/08 13:12:26;;;;;;;11.53;6.20;;;30.50;45.60;;;;;;5098866;28;20546;-77
2023/07/08 13:14:58;;;;;;;13.90;6.90;;;30.50;45.50;;;;;;5095605;28;20806;-77